KBGD

Hutchinson County Airport

Borger, Texas, USA
METAR KBGD 190651Z AUTO 10003KT 10SM CLR 26/18 A2998 RMK AO2 SLP097 T02610178
Observed Flight Rules
Jul-19 @ 06:51 UTC (37 minutes ago) Visual Flight Rules
Wind Visibility Clouds
100° at 3 knots 10 miles
  • Clear skies
Temperatures Readings
Current 26°C / 79°F
Dewpoint 18°C / 64°F
Humidity 61%
Altimeter 29.98" Hg
Pressure 1009.7 hPa
Elevation 927
METAR KBGD 190651Z AUTO 10003KT 10SM CLR 26/18 A2998 RMK AO2 SLP097 T02610178
Observed Flight Rules
Jul-19 @ 06:51 UTC
(37 minutes ago)
VFR
Wind Visibility
100° at 3 knots 10 miles
Clouds
  • Clear skies
Temperature Dewpoint
26°C / 79°F 18°C / 64°F
Humidity Altimeter Pressure
61% 29.98" Hg 1009.7 hPa